createdAt,value
2022-09-11T00:01:48.492Z,100511.02
2022-09-11T00:04:17.089Z,100505.65
2022-09-11T00:06:46.495Z,100500.81
2022-09-11T00:09:15.062Z,100499.75
2022-09-11T00:11:44.315Z,100500.61
2022-09-11T00:14:14.589Z,100499.56
2022-09-11T00:16:47.317Z,100503.55
2022-09-11T00:19:20.211Z,100499.31
2022-09-11T00:21:50.786Z,100501.64
2022-09-11T00:24:19.362Z,100500.45
2022-09-11T00:26:48.093Z,100498.25
2022-09-11T00:29:16.771Z,100497.52
2022-09-11T00:31:45.405Z,100500.33
2022-09-11T00:34:14.091Z,100497.87
2022-09-11T00:36:43.396Z,100501.09
2022-09-11T00:39:14.431Z,100502.42
2022-09-11T00:41:45.272Z,100500.24
2022-09-11T00:44:16.245Z,100500.70
2022-09-11T00:46:53.478Z,100498.92
2022-09-11T00:49:48.436Z,100504.54
2022-09-11T00:52:36.284Z,100502.02
2022-09-11T00:55:15.128Z,100507.02
2022-09-11T00:57:53.214Z,100508.42
2022-09-11T01:00:22.989Z,100508.70
2022-09-11T01:02:54.739Z,100504.02
2022-09-11T01:05:28.218Z,100497.54
2022-09-11T01:07:57.045Z,100494.05
2022-09-11T01:10:54.851Z,100488.60
2022-09-11T01:13:50.303Z,100488.14
2022-09-11T01:16:43.344Z,100497.43
2022-09-11T01:19:52.580Z,100496.20
2022-09-11T01:22:46.226Z,100508.33
2022-09-11T01:25:28.117Z,100512.85
2022-09-11T01:28:07.903Z,100520.27
2022-09-11T01:30:46.990Z,100518.42
2022-09-11T01:33:31.166Z,100516.84
2022-09-11T01:36:49.035Z,100518.48
2022-09-11T01:39:23.338Z,100511.28
2022-09-11T01:42:01.695Z,100506.54
2022-09-11T01:44:55.600Z,100502.55
2022-09-11T01:47:26.459Z,100501.95
2022-09-11T01:50:04.526Z,100505.73
2022-09-11T01:52:58.338Z,100502.77
2022-09-11T01:55:38.039Z,100500.15
2022-09-11T01:58:27.046Z,100499.92
2022-09-11T02:01:25.093Z,100503.07
2022-09-11T02:03:56.893Z,100505.39
2022-09-11T02:06:35.088Z,100505.51
2022-09-11T02:09:10.204Z,100502.22
2022-09-11T02:11:42.598Z,100498.15
2022-09-11T02:14:39.971Z,100498.23
2022-09-11T02:17:40.974Z,100497.26
2022-09-11T02:20:10.836Z,100493.45
2022-09-11T02:22:39.414Z,100498.08
2022-09-11T02:25:08.682Z,100499.77
2022-09-11T02:27:37.219Z,100501.76
2022-09-11T02:30:07.573Z,100502.16
2022-09-11T02:32:39.141Z,100505.68
2022-09-11T02:35:08.982Z,100499.80
2022-09-11T02:38:17.978Z,100499.23
2022-09-11T02:41:25.319Z,100501.15
2022-09-11T02:44:47.725Z,100494.08
2022-09-11T02:48:02.795Z,100488.98
2022-09-11T02:51:02.246Z,100487.55
2022-09-11T02:54:05.746Z,100481.27
2022-09-11T02:57:06.989Z,100480.48
2022-09-11T03:00:02.571Z,100482.59
2022-09-11T03:02:36.619Z,100489.85
2022-09-11T03:05:08.045Z,100495.55
2022-09-11T03:07:37.441Z,100500.17
2022-09-11T03:10:08.798Z,100503.71
2022-09-11T03:12:38.997Z,100502.79
2022-09-11T03:15:10.678Z,100497.73
2022-09-11T03:17:40.215Z,100490.66
2022-09-11T03:20:09.594Z,100488.54
2022-09-11T03:22:38.192Z,100490.69
2022-09-11T03:25:07.508Z,100502.90
2022-09-11T03:27:39.739Z,100508.13
2022-09-11T03:30:10.568Z,100511.38
2022-09-11T03:32:39.351Z,100508.44
2022-09-11T03:35:08.405Z,100504.09
2022-09-11T03:37:39.209Z,100500.55
2022-09-11T03:40:08.807Z,100498.06
2022-09-11T03:42:37.915Z,100504.05
2022-09-11T03:45:06.930Z,100505.24
2022-09-11T03:47:35.537Z,100510.97
2022-09-11T03:50:04.626Z,100511.00
2022-09-11T03:52:35.016Z,100500.45
2022-09-11T03:55:06.204Z,100493.27
2022-09-11T03:57:38.802Z,100497.57
2022-09-11T04:00:08.978Z,100489.25
2022-09-11T04:02:50.818Z,100487.48
2022-09-11T04:05:31.197Z,100491.21
2022-09-11T04:08:00.279Z,100498.20
2022-09-11T04:10:29.805Z,100500.29
2022-09-11T04:12:59.186Z,100503.48
2022-09-11T04:15:31.370Z,100509.45
2022-09-11T04:18:05.278Z,100517.80
2022-09-11T04:20:35.014Z,100518.20
2022-09-11T04:23:06.864Z,100520.98
2022-09-11T04:25:35.807Z,100516.08
2022-09-11T04:28:05.307Z,100516.84
2022-09-11T04:30:38.818Z,100520.23
2022-09-11T04:33:08.076Z,100528.31
2022-09-11T04:35:43.559Z,100527.88
2022-09-11T04:38:12.318Z,100530.29
2022-09-11T04:40:40.924Z,100528.77
2022-09-11T04:43:09.626Z,100528.58
2022-09-11T04:45:40.645Z,100526.76
2022-09-11T04:48:10.070Z,100527.05
2022-09-11T04:50:38.593Z,100522.53
2022-09-11T04:53:24.079Z,100527.44
2022-09-11T04:55:52.736Z,100525.98
2022-09-11T04:58:22.528Z,100530.56
2022-09-11T05:00:52.821Z,100529.64
2022-09-11T05:03:21.472Z,100527.55
2022-09-11T05:05:50.614Z,100522.80
2022-09-11T05:08:19.310Z,100518.54
2022-09-11T05:10:50.173Z,100516.05
2022-09-11T05:13:19.286Z,100514.48
2022-09-11T05:15:49.945Z,100514.38
2022-09-11T05:18:29.724Z,100512.45
2022-09-11T05:21:15.685Z,100511.80
2022-09-11T05:23:49.530Z,100514.52
2022-09-11T05:26:21.973Z,100515.54
2022-09-11T05:29:15.757Z,100510.42
2022-09-11T05:31:53.364Z,100509.96
2022-09-11T05:34:22.538Z,100503.84
2022-09-11T05:36:52.491Z,100515.00
2022-09-11T05:39:21.209Z,100514.64
2022-09-11T05:41:55.512Z,100515.54
2022-09-11T05:44:25.911Z,100521.86
2022-09-11T05:46:55.342Z,100519.77
2022-09-11T05:49:25.938Z,100518.83
2022-09-11T05:51:54.662Z,100516.77
2022-09-11T05:54:23.446Z,100515.15
2022-09-11T05:56:54.926Z,100510.31
2022-09-11T05:59:27.387Z,100506.42
2022-09-11T06:01:56.931Z,100503.80
2022-09-11T06:05:16.916Z,100503.98
2022-09-11T06:07:45.657Z,100507.84
2022-09-11T06:10:14.537Z,100510.30
2022-09-11T06:12:43.736Z,100505.35
2022-09-11T06:15:30.234Z,100507.85
2022-09-11T06:18:01.493Z,100506.48
2022-09-11T06:20:30.586Z,100505.27
2022-09-11T06:23:01.072Z,100505.73
2022-09-11T06:25:29.683Z,100508.76
2022-09-11T06:27:58.491Z,100509.56
2022-09-11T06:30:27.480Z,100509.21
2022-09-11T06:32:57.920Z,100511.79
2022-09-11T06:35:26.755Z,100509.35
2022-09-11T06:37:56.004Z,100517.04
2022-09-11T06:40:25.449Z,100515.60
2022-09-11T06:42:54.419Z,100516.14
2022-09-11T06:45:26.218Z,100516.29
2022-09-11T06:47:55.277Z,100511.06
2022-09-11T06:50:24.094Z,100512.24
2022-09-11T06:53:02.452Z,100509.90
2022-09-11T06:55:32.364Z,100514.44
2022-09-11T06:58:07.826Z,100517.39
2022-09-11T07:00:37.139Z,100517.80
2022-09-11T07:04:24.715Z,100516.98
2022-09-11T07:06:53.682Z,100521.53
2022-09-11T07:09:24.930Z,100523.09
2022-09-11T07:11:56.025Z,100520.73
2022-09-11T07:14:26.149Z,100521.46
2022-09-11T07:16:59.015Z,100519.14
2022-09-11T07:19:27.869Z,100522.78
2022-09-11T07:22:03.048Z,100523.75
2022-09-11T07:24:35.706Z,100520.65
2022-09-11T07:27:04.851Z,100523.30
2022-09-11T07:29:36.227Z,100521.44
2022-09-11T07:32:05.023Z,100521.23
2022-09-11T07:35:53.735Z,100515.66
2022-09-11T07:38:34.428Z,100511.36
2022-09-11T07:41:16.017Z,100515.31
2022-09-11T07:43:57.077Z,100513.55
2022-09-11T07:46:27.413Z,100512.11
2022-09-11T07:48:56.335Z,100511.83
2022-09-11T07:51:27.086Z,100510.06
2022-09-11T07:53:59.042Z,100505.18
2022-09-11T07:56:31.413Z,100506.08
2022-09-11T07:59:28.797Z,100501.86
2022-09-11T08:02:00.727Z,100500.85
2022-09-11T08:04:29.529Z,100489.47
2022-09-11T08:06:58.292Z,100489.98
2022-09-11T08:09:33.976Z,100489.90
2022-09-11T08:12:05.947Z,100482.21
2022-09-11T08:14:37.162Z,100484.02
2022-09-11T08:17:13.020Z,100473.89
2022-09-11T08:19:42.148Z,100479.30
2022-09-11T08:22:11.462Z,100477.35
2022-09-11T08:24:43.986Z,100477.02
2022-09-11T08:27:13.748Z,100477.04
2022-09-11T08:29:43.298Z,100477.64
2022-09-11T08:32:13.507Z,100475.20
2022-09-11T08:34:43.027Z,100471.41
2022-09-11T08:37:11.822Z,100470.32
2022-09-11T08:39:53.221Z,100476.77
2022-09-11T08:42:21.885Z,100475.95
2022-09-11T08:44:55.851Z,100474.91
2022-09-11T08:47:41.647Z,100474.50
2022-09-11T08:50:35.251Z,100468.06
2022-09-11T08:53:04.610Z,100468.00
2022-09-11T08:55:43.993Z,100463.30
2022-09-11T08:58:33.977Z,100459.59
2022-09-11T09:01:43.684Z,100455.33
2022-09-11T09:04:24.357Z,100455.30
2022-09-11T09:07:30.099Z,100456.23
2022-09-11T09:10:27.779Z,100449.12
2022-09-11T09:13:26.870Z,100445.34
2022-09-11T09:16:02.930Z,100438.19
2022-09-11T09:18:45.715Z,100428.45
2022-09-11T09:21:28.754Z,100422.08
2022-09-11T09:24:19.488Z,100424.98
2022-09-11T09:26:57.267Z,100432.92
2022-09-11T09:29:38.989Z,100430.86
2022-09-11T09:32:21.300Z,100433.09
2022-09-11T09:34:56.199Z,100428.64
2022-09-11T09:37:26.605Z,100431.96
2022-09-11T09:39:56.083Z,100435.48
2022-09-11T09:42:40.929Z,100436.14
2022-09-11T09:45:55.115Z,100437.80
2022-09-11T09:48:23.756Z,100434.31
2022-09-11T09:50:52.393Z,100434.10
2022-09-11T09:53:45.465Z,100434.89
2022-09-11T09:56:18.359Z,100436.30
2022-09-11T09:59:02.944Z,100435.14
2022-09-11T10:01:50.991Z,100427.31
2022-09-11T10:04:22.930Z,100421.16
2022-09-11T10:06:55.538Z,100416.08
2022-09-11T10:09:30.144Z,100416.33
2022-09-11T10:12:24.632Z,100415.24
2022-09-11T10:15:03.390Z,100418.33
2022-09-11T10:17:38.591Z,100419.90
2022-09-11T10:20:26.234Z,100424.03
2022-09-11T10:22:56.395Z,100419.36
2022-09-11T10:25:27.344Z,100416.56
2022-09-11T10:28:10.738Z,100417.84
2022-09-11T10:30:45.347Z,100417.05
2022-09-11T10:33:30.124Z,100422.15
2022-09-11T10:36:02.022Z,100416.91
2022-09-11T10:38:36.942Z,100405.50
2022-09-11T10:41:13.336Z,100407.98
2022-09-11T10:44:00.954Z,100406.84
2022-09-11T10:46:45.554Z,100394.19
2022-09-11T10:49:24.061Z,100384.04
2022-09-11T10:52:08.362Z,100380.95
2022-09-11T10:55:01.850Z,100378.83
2022-09-11T10:57:53.630Z,100375.20
2022-09-11T11:00:29.443Z,100371.86
2022-09-11T11:03:13.237Z,100371.91
2022-09-11T11:05:59.878Z,100373.21
2022-09-11T11:09:08.452Z,100365.11
2022-09-11T11:12:36.679Z,100355.27
2022-09-11T11:15:50.063Z,100347.61
2022-09-11T11:18:52.865Z,100339.70
2022-09-11T11:21:37.854Z,100340.17
2022-09-11T11:24:42.286Z,100337.65
2022-09-11T11:27:59.680Z,100337.23
2022-09-11T11:30:39.066Z,100333.58
2022-09-11T11:33:51.552Z,100326.86
2022-09-11T11:36:38.223Z,100322.60
2022-09-11T11:39:31.646Z,100325.98
2022-09-11T11:42:09.455Z,100327.81
2022-09-11T11:44:49.245Z,100315.17
2022-09-11T11:47:25.610Z,100308.31
2022-09-11T11:50:40.800Z,100305.80
2022-09-11T11:53:35.524Z,100309.45
2022-09-11T11:56:45.263Z,100297.68
2022-09-11T11:59:32.268Z,100288.02
2022-09-11T12:02:10.109Z,100283.27
2022-09-11T12:05:11.103Z,100282.21
2022-09-11T12:07:41.638Z,100284.10
2022-09-11T12:10:36.401Z,100281.58
2022-09-11T12:13:31.552Z,100276.95
2022-09-11T12:16:30.806Z,100264.66
2022-09-11T12:19:17.009Z,100267.08
2022-09-11T12:21:55.453Z,100276.77
2022-09-11T12:24:59.229Z,100276.05
2022-09-11T12:27:54.723Z,100278.95
2022-09-11T12:30:29.169Z,100286.59
2022-09-11T12:33:02.699Z,100293.38
2022-09-11T12:35:46.848Z,100290.60
2022-09-11T12:38:50.803Z,100285.95
2022-09-11T12:41:36.407Z,100301.48
2022-09-11T12:44:25.671Z,100297.11
2022-09-11T12:46:57.245Z,100301.95
2022-09-11T12:49:27.440Z,100299.38
2022-09-11T12:52:01.723Z,100305.14
2022-09-11T12:54:44.776Z,100309.48
2022-09-11T12:57:29.415Z,100312.95
2022-09-11T13:00:03.862Z,100313.38
2022-09-11T13:02:37.820Z,100317.77
2022-09-11T13:05:30.178Z,100330.73
2022-09-11T13:08:28.791Z,100325.64
2022-09-11T13:11:42.616Z,100347.27
2022-09-11T13:14:31.805Z,100352.86
2022-09-11T13:17:37.554Z,100363.52
2022-09-11T13:20:08.052Z,100362.43
2022-09-11T13:22:39.002Z,100369.64
2022-09-11T13:25:20.822Z,100358.29
2022-09-11T13:28:02.608Z,100338.84
2022-09-11T13:30:38.033Z,100314.35
2022-09-11T13:33:22.658Z,100298.61
2022-09-11T13:35:57.710Z,100291.78
2022-09-11T13:38:33.702Z,100287.41
2022-09-11T13:41:24.437Z,100291.85
2022-09-11T13:44:03.237Z,100293.95
2022-09-11T13:46:34.391Z,100277.16
2022-09-11T13:49:10.714Z,100299.73
2022-09-11T13:51:48.861Z,100295.19
2022-09-11T13:54:38.756Z,100285.61
2022-09-11T13:57:24.339Z,100301.77
2022-09-11T13:59:57.600Z,100297.13
2022-09-11T14:02:55.495Z,100301.52
2022-09-11T14:05:31.799Z,100291.91
2022-09-11T14:08:07.939Z,100286.73
2022-09-11T14:10:42.717Z,100279.11
2022-09-11T14:13:20.127Z,100276.17
2022-09-11T14:15:58.436Z,100274.02
2022-09-11T14:18:39.786Z,100278.61
2022-09-11T14:21:19.950Z,100277.11
2022-09-11T14:23:55.607Z,100275.87
2022-09-11T14:26:35.436Z,100272.48
2022-09-11T14:29:23.340Z,100269.73
2022-09-11T14:32:24.150Z,100266.09
2022-09-11T14:34:52.987Z,100262.84
2022-09-11T14:37:22.875Z,100261.71
2022-09-11T14:40:00.358Z,100263.52
2022-09-11T14:42:32.996Z,100269.98
2022-09-11T14:45:20.266Z,100277.71
2022-09-11T14:47:49.093Z,100283.73
2022-09-11T14:50:18.078Z,100283.77
2022-09-11T14:52:47.009Z,100291.52
2022-09-11T14:55:18.357Z,100292.52
2022-09-11T14:57:48.165Z,100292.88
2022-09-11T15:00:19.862Z,100288.71
2022-09-11T15:02:48.801Z,100289.94
2022-09-11T15:05:23.090Z,100294.85
2022-09-11T15:07:53.290Z,100292.36
2022-09-11T15:10:22.816Z,100286.89
2022-09-11T15:12:51.682Z,100280.99
2022-09-11T15:15:21.836Z,100281.62
2022-09-11T15:17:50.681Z,100270.48
2022-09-11T15:20:27.784Z,100270.28
2022-09-11T15:22:56.596Z,100262.19
2022-09-11T15:25:46.165Z,100262.51
2022-09-11T15:28:26.063Z,100263.90
2022-09-11T15:31:01.424Z,100268.14
2022-09-11T15:33:33.698Z,100265.99
2022-09-11T15:36:09.883Z,100261.59
2022-09-11T15:38:44.205Z,100258.48
2022-09-11T15:41:16.023Z,100256.96
2022-09-11T15:43:54.414Z,100262.02
2022-09-11T15:46:24.506Z,100264.06
2022-09-11T15:49:02.635Z,100259.14
2022-09-11T15:51:33.517Z,100275.80
2022-09-11T15:54:29.726Z,100300.31
2022-09-11T15:57:20.164Z,100329.23
2022-09-11T15:59:53.183Z,100350.89
2022-09-11T16:02:24.250Z,100348.74
2022-09-11T16:05:09.012Z,100335.66
2022-09-11T16:07:42.978Z,100332.02
2022-09-11T16:10:23.816Z,100330.39
2022-09-11T16:12:59.027Z,100321.23
2022-09-11T16:15:28.465Z,100323.58
2022-09-11T16:17:57.614Z,100319.27
2022-09-11T16:20:33.490Z,100314.91
2022-09-11T16:23:19.688Z,100312.63
2022-09-11T16:25:50.613Z,100310.52
2022-09-11T16:28:28.149Z,100308.09
2022-09-11T16:31:07.748Z,100307.57
2022-09-11T16:33:51.226Z,100296.93
2022-09-11T16:36:43.470Z,100286.91
2022-09-11T16:39:25.011Z,100291.78
2022-09-11T16:42:00.452Z,100293.31
2022-09-11T16:44:36.902Z,100291.92
2022-09-11T16:47:13.166Z,100295.98
2022-09-11T16:50:05.797Z,100296.98
2022-09-11T16:52:41.414Z,100321.80
2022-09-11T16:55:43.191Z,100324.34
2022-09-11T16:58:16.981Z,100333.55
2022-09-11T17:00:49.850Z,100329.63
2022-09-11T17:03:27.413Z,100329.64
2022-09-11T17:06:10.288Z,100332.98
2022-09-11T17:08:45.355Z,100346.48
2022-09-11T17:11:23.910Z,100350.21
2022-09-11T17:14:03.575Z,100347.95
2022-09-11T17:16:54.178Z,100345.52
2022-09-11T17:19:25.393Z,100341.23
2022-09-11T17:22:00.167Z,100349.52
2022-09-11T17:24:32.076Z,100343.38
2022-09-11T17:27:08.528Z,100336.52
2022-09-11T17:29:44.610Z,100327.42
2022-09-11T17:32:28.129Z,100324.75
2022-09-11T17:35:02.393Z,100321.86
2022-09-11T17:37:38.100Z,100314.34
2022-09-11T17:40:09.335Z,100309.49
2022-09-11T17:42:42.290Z,100315.98
2022-09-11T17:48:02.037Z,100327.23
2022-09-11T17:50:31.266Z,100321.35
2022-09-11T17:53:07.077Z,100324.98
2022-09-11T17:55:36.698Z,100320.76
2022-09-11T17:58:52.522Z,100317.38
2022-09-11T18:01:54.595Z,100307.14
2022-09-11T18:04:23.750Z,100300.48
2022-09-11T18:07:02.081Z,100294.61
2022-09-11T18:09:32.536Z,100294.88
2022-09-11T18:12:17.695Z,100297.61
2022-09-11T18:15:26.745Z,100295.05
2022-09-11T18:17:55.528Z,100301.25
2022-09-11T18:20:25.084Z,100298.68
2022-09-11T18:22:56.635Z,100295.39
2022-09-11T18:25:31.043Z,100295.46
2022-09-11T18:28:03.863Z,100300.33
2022-09-11T18:30:51.055Z,100300.70
2022-09-11T18:33:23.528Z,100299.30
2022-09-11T18:36:14.157Z,100292.33
2022-09-11T18:38:57.255Z,100295.13
2022-09-11T18:41:35.751Z,100293.13
2022-09-11T18:44:26.089Z,100293.26
2022-09-11T18:46:59.107Z,100294.57
2022-09-11T18:49:30.147Z,100293.73
2022-09-11T18:52:02.628Z,100292.61
2022-09-11T18:54:33.844Z,100292.83
2022-09-11T18:57:06.532Z,100287.85
2022-09-11T18:59:41.314Z,100284.59
2022-09-11T19:02:17.875Z,100281.75
2022-09-11T19:04:50.805Z,100267.58
2022-09-11T19:07:23.189Z,100283.33
2022-09-11T19:13:48.965Z,100288.22
2022-09-11T19:16:26.232Z,100287.34
2022-09-11T19:19:01.890Z,100290.96
2022-09-11T19:21:49.095Z,100289.86
2022-09-11T19:24:19.652Z,100289.99
2022-09-11T19:26:54.607Z,100289.59
2022-09-11T19:29:23.929Z,100293.17
2022-09-11T19:31:55.934Z,100291.57
2022-09-11T19:34:25.490Z,100289.60
2022-09-11T19:36:54.399Z,100286.15
2022-09-11T19:39:27.521Z,100289.80
2022-09-11T19:42:02.350Z,100288.30
2022-09-11T19:44:39.854Z,100295.65
2022-09-11T19:47:25.801Z,100296.35
2022-09-11T19:49:54.481Z,100297.21
2022-09-11T19:52:23.785Z,100297.84
2022-09-11T19:54:52.648Z,100296.23
2022-09-11T19:57:21.405Z,100296.73
2022-09-11T19:59:50.198Z,100297.44
2022-09-11T20:02:19.490Z,100291.73
2022-09-11T20:04:48.107Z,100290.60
2022-09-11T20:07:16.732Z,100288.85
2022-09-11T20:09:45.431Z,100286.16
2022-09-11T20:12:14.058Z,100285.60
2022-09-11T20:14:42.989Z,100283.02
2022-09-11T20:17:13.264Z,100279.77
2022-09-11T20:19:45.051Z,100272.77
2022-09-11T20:22:13.735Z,100273.00
2022-09-11T20:24:42.441Z,100273.52
2022-09-11T20:27:11.232Z,100273.48
2022-09-11T20:29:42.037Z,100271.99
2022-09-11T20:32:15.106Z,100271.25
2022-09-11T20:34:43.790Z,100269.02
2022-09-11T20:37:12.857Z,100267.83
2022-09-11T20:39:41.865Z,100268.09
2022-09-11T20:42:11.055Z,100271.23
2022-09-11T20:44:39.856Z,100268.79
2022-09-11T20:47:11.868Z,100270.05
2022-09-11T20:49:40.686Z,100267.11
2022-09-11T20:52:11.708Z,100268.67
2022-09-11T20:54:45.420Z,100269.44
2022-09-11T20:57:16.496Z,100267.35
2022-09-11T20:59:48.051Z,100269.06
2022-09-11T21:02:18.519Z,100267.73
2022-09-11T21:04:49.355Z,100267.29
2022-09-11T21:07:18.284Z,100260.73
2022-09-11T21:09:48.000Z,100271.70
2022-09-11T21:12:16.780Z,100290.02
2022-09-11T21:14:46.076Z,100311.64
2022-09-11T21:17:14.999Z,100308.98
2022-09-11T21:19:43.735Z,100311.33
2022-09-11T21:22:12.598Z,100304.98
2022-09-11T21:24:43.337Z,100301.00
2022-09-11T21:27:12.048Z,100305.63
2022-09-11T21:29:40.958Z,100300.86
2022-09-11T21:32:16.080Z,100299.34
2022-09-11T21:34:45.298Z,100299.85
2022-09-11T21:37:13.917Z,100299.80
2022-09-11T21:39:42.647Z,100300.35
2022-09-11T21:42:12.112Z,100300.00
2022-09-11T21:44:40.930Z,100304.42
2022-09-11T21:47:09.838Z,100303.40
2022-09-11T21:49:38.547Z,100302.58
2022-09-11T21:52:09.897Z,100304.67
2022-09-11T21:54:39.394Z,100304.18
2022-09-11T21:57:08.111Z,100301.76
2022-09-11T21:59:36.835Z,100296.78
2022-09-11T22:02:05.999Z,100293.59
2022-09-11T22:04:35.046Z,100293.06
2022-09-11T22:07:04.558Z,100294.77
2022-09-11T22:09:33.070Z,100296.55
2022-09-11T22:12:02.054Z,100297.80
2022-09-11T22:14:31.227Z,100296.97
2022-09-11T22:16:59.815Z,100297.61
2022-09-11T22:19:28.814Z,100295.20
2022-09-11T22:21:57.543Z,100291.40
2022-09-11T22:24:26.167Z,100291.93
2022-09-11T22:26:54.806Z,100297.00
2022-09-11T22:29:23.367Z,100296.91
2022-09-11T22:31:52.050Z,100295.96
2022-09-11T22:34:20.818Z,100290.78
2022-09-11T22:36:50.483Z,100291.91
2022-09-11T22:39:19.044Z,100291.78
2022-09-11T22:41:47.669Z,100293.46
2022-09-11T22:44:16.328Z,100292.84
2022-09-11T22:46:48.719Z,100291.42
2022-09-11T22:49:17.946Z,100290.69
2022-09-11T22:51:46.781Z,100287.39
2022-09-11T22:54:16.004Z,100286.94
2022-09-11T22:56:44.728Z,100284.34
2022-09-11T22:59:13.728Z,100285.31
2022-09-11T23:01:42.450Z,100281.70
2022-09-11T23:04:11.199Z,100279.95
2022-09-11T23:06:58.783Z,100278.52
2022-09-11T23:09:27.574Z,100277.03
2022-09-11T23:11:56.234Z,100281.91
2022-09-11T23:14:25.058Z,100280.91
2022-09-11T23:16:53.766Z,100278.70
2022-09-11T23:19:23.011Z,100277.52
2022-09-11T23:21:51.690Z,100277.92
2022-09-11T23:24:21.148Z,100273.69
2022-09-11T23:26:49.936Z,100275.40
2022-09-11T23:29:18.700Z,100273.94
2022-09-11T23:31:47.546Z,100270.46
2022-09-11T23:34:17.490Z,100269.69
2022-09-11T23:36:46.177Z,100268.95
2022-09-11T23:39:15.769Z,100271.98
2022-09-11T23:41:44.578Z,100267.06
2022-09-11T23:44:13.301Z,100268.98
2022-09-11T23:46:42.411Z,100269.86
2022-09-11T23:49:12.662Z,100270.96
2022-09-11T23:51:41.860Z,100272.92
2022-09-11T23:54:10.487Z,100274.26
2022-09-11T23:56:39.347Z,100276.52
2022-09-11T23:59:08.304Z,100279.19
